sensor_id;sensor_type;location;lat;lon;timestamp;temperature;humidity
38568;DHT22;24338;48.280;10.970;2022-12-18T00:01:37;-4.70;99.90
38568;DHT22;24338;48.280;10.970;2022-12-18T00:04:05;-4.60;99.90
38568;DHT22;24338;48.280;10.970;2022-12-18T00:06:34;-4.60;99.90
38568;DHT22;24338;48.280;10.970;2022-12-18T00:09:03;-4.60;99.90
38568;DHT22;24338;48.280;10.970;2022-12-18T00:11:30;-4.60;99.90
38568;DHT22;24338;48.280;10.970;2022-12-18T00:13:58;-4.50;99.90
38568;DHT22;24338;48.280;10.970;2022-12-18T00:16:27;-4.50;99.90
38568;DHT22;24338;48.280;10.970;2022-12-18T00:18:59;-4.50;99.90
38568;DHT22;24338;48.280;10.970;2022-12-18T00:21:28;-4.50;99.90
38568;DHT22;24338;48.280;10.970;2022-12-18T00:23:55;-4.50;99.90
38568;DHT22;24338;48.280;10.970;2022-12-18T00:26:24;-4.50;99.90
38568;DHT22;24338;48.280;10.970;2022-12-18T00:28:52;-4.50;99.90
38568;DHT22;24338;48.280;10.970;2022-12-18T00:31:22;-4.50;99.90
38568;DHT22;24338;48.280;10.970;2022-12-18T00:33:49;-4.50;99.90
38568;DHT22;24338;48.280;10.970;2022-12-18T00:36:22;-4.50;99.90
38568;DHT22;24338;48.280;10.970;2022-12-18T00:38:50;-4.50;99.90
38568;DHT22;24338;48.280;10.970;2022-12-18T00:41:18;-4.50;99.90
38568;DHT22;24338;48.280;10.970;2022-12-18T00:44:06;-4.40;99.90
38568;DHT22;24338;48.280;10.970;2022-12-18T00:46:33;-4.50;99.90
38568;DHT22;24338;48.280;10.970;2022-12-18T00:49:01;-4.40;99.90
38568;DHT22;24338;48.280;10.970;2022-12-18T00:51:27;-4.40;99.90
38568;DHT22;24338;48.280;10.970;2022-12-18T00:53:54;-4.40;99.90
38568;DHT22;24338;48.280;10.970;2022-12-18T00:56:22;-4.50;99.90
38568;DHT22;24338;48.280;10.970;2022-12-18T00:58:49;-4.50;99.90
38568;DHT22;24338;48.280;10.970;2022-12-18T01:01:17;-4.50;99.90
38568;DHT22;24338;48.280;10.970;2022-12-18T01:03:44;-4.50;99.90
38568;DHT22;24338;48.280;10.970;2022-12-18T01:06:14;-4.50;99.90
38568;DHT22;24338;48.280;10.970;2022-12-18T01:08:41;-4.50;99.90
38568;DHT22;24338;48.280;10.970;2022-12-18T01:11:14;-4.50;99.90
38568;DHT22;24338;48.280;10.970;2022-12-18T01:13:42;-4.40;99.90
38568;DHT22;24338;48.280;10.970;2022-12-18T01:16:12;-4.50;99.90
38568;DHT22;24338;48.280;10.970;2022-12-18T01:18:39;-4.50;99.90
38568;DHT22;24338;48.280;10.970;2022-12-18T01:21:08;-4.50;99.90
38568;DHT22;24338;48.280;10.970;2022-12-18T01:23:35;-4.50;99.90
38568;DHT22;24338;48.280;10.970;2022-12-18T01:26:12;-4.60;99.90
38568;DHT22;24338;48.280;10.970;2022-12-18T01:28:39;-4.60;99.90
38568;DHT22;24338;48.280;10.970;2022-12-18T01:31:30;-4.60;99.90
38568;DHT22;24338;48.280;10.970;2022-12-18T01:34:00;-4.70;99.90
38568;DHT22;24338;48.280;10.970;2022-12-18T01:36:33;-4.70;99.90
38568;DHT22;24338;48.280;10.970;2022-12-18T01:39:20;-4.70;99.90
38568;DHT22;24338;48.280;10.970;2022-12-18T01:41:48;-4.70;99.90
38568;DHT22;24338;48.280;10.970;2022-12-18T01:47:41;-4.80;99.90
38568;DHT22;24338;48.280;10.970;2022-12-18T01:50:18;-4.80;99.90
38568;DHT22;24338;48.280;10.970;2022-12-18T01:53:07;-4.90;99.90
38568;DHT22;24338;48.280;10.970;2022-12-18T01:55:49;-4.90;99.90
38568;DHT22;24338;48.280;10.970;2022-12-18T01:58:18;-4.90;99.90
38568;DHT22;24338;48.280;10.970;2022-12-18T02:00:46;-4.90;99.90
38568;DHT22;24338;48.280;10.970;2022-12-18T02:03:13;-4.90;99.90
38568;DHT22;24338;48.280;10.970;2022-12-18T02:05:53;-4.90;99.90
38568;DHT22;24338;48.280;10.970;2022-12-18T02:08:33;-5.00;99.90
38568;DHT22;24338;48.280;10.970;2022-12-18T02:11:22;-5.00;99.90
38568;DHT22;24338;48.280;10.970;2022-12-18T02:17:04;-4.90;99.90
38568;DHT22;24338;48.280;10.970;2022-12-18T02:27:39;-5.10;99.90
38568;DHT22;24338;48.280;10.970;2022-12-18T02:30:07;-5.00;99.90
38568;DHT22;24338;48.280;10.970;2022-12-18T02:32:38;-5.00;99.90
38568;DHT22;24338;48.280;10.970;2022-12-18T02:35:10;-5.10;99.90
38568;DHT22;24338;48.280;10.970;2022-12-18T02:37:38;-5.10;99.90
38568;DHT22;24338;48.280;10.970;2022-12-18T02:40:06;-5.10;99.90
38568;DHT22;24338;48.280;10.970;2022-12-18T02:42:34;-5.10;99.90
38568;DHT22;24338;48.280;10.970;2022-12-18T02:45:01;-5.10;99.90
38568;DHT22;24338;48.280;10.970;2022-12-18T02:47:32;-5.20;99.90
38568;DHT22;24338;48.280;10.970;2022-12-18T02:55:20;-5.20;99.90
38568;DHT22;24338;48.280;10.970;2022-12-18T02:58:04;-5.10;99.90
38568;DHT22;24338;48.280;10.970;2022-12-18T03:00:59;-5.10;99.90
38568;DHT22;24338;48.280;10.970;2022-12-18T03:03:33;-5.10;99.90
38568;DHT22;24338;48.280;10.970;2022-12-18T03:06:12;-5.10;99.90
38568;DHT22;24338;48.280;10.970;2022-12-18T03:08:44;-5.10;99.90
38568;DHT22;24338;48.280;10.970;2022-12-18T03:11:14;-5.10;99.90
38568;DHT22;24338;48.280;10.970;2022-12-18T03:13:54;-5.10;99.90
38568;DHT22;24338;48.280;10.970;2022-12-18T03:16:26;-5.00;99.90
38568;DHT22;24338;48.280;10.970;2022-12-18T03:19:04;-5.00;99.90
38568;DHT22;24338;48.280;10.970;2022-12-18T03:21:47;-5.00;99.90
38568;DHT22;24338;48.280;10.970;2022-12-18T03:24:15;-5.00;99.90
38568;DHT22;24338;48.280;10.970;2022-12-18T03:26:46;-5.00;99.90
38568;DHT22;24338;48.280;10.970;2022-12-18T03:29:18;-5.00;99.90
38568;DHT22;24338;48.280;10.970;2022-12-18T03:31:54;-5.10;99.90
38568;DHT22;24338;48.280;10.970;2022-12-18T03:34:32;-5.00;99.90
38568;DHT22;24338;48.280;10.970;2022-12-18T03:37:01;-5.00;99.90
38568;DHT22;24338;48.280;10.970;2022-12-18T03:39:28;-5.10;99.90
38568;DHT22;24338;48.280;10.970;2022-12-18T03:42:14;-5.10;99.90
38568;DHT22;24338;48.280;10.970;2022-12-18T03:55:33;-5.00;99.90
38568;DHT22;24338;48.280;10.970;2022-12-18T03:58:02;-4.90;99.90
38568;DHT22;24338;48.280;10.970;2022-12-18T04:00:31;-4.90;99.90
38568;DHT22;24338;48.280;10.970;2022-12-18T04:03:00;-4.90;99.90
38568;DHT22;24338;48.280;10.970;2022-12-18T04:05:28;-4.90;99.90
38568;DHT22;24338;48.280;10.970;2022-12-18T04:07:56;-4.90;99.90
38568;DHT22;24338;48.280;10.970;2022-12-18T04:10:24;-4.90;99.90
38568;DHT22;24338;48.280;10.970;2022-12-18T04:12:51;-4.90;99.90
38568;DHT22;24338;48.280;10.970;2022-12-18T04:15:21;-4.90;99.90
38568;DHT22;24338;48.280;10.970;2022-12-18T04:17:49;-4.90;99.90
38568;DHT22;24338;48.280;10.970;2022-12-18T04:20:17;-4.90;99.90
38568;DHT22;24338;48.280;10.970;2022-12-18T04:22:44;-4.90;99.90
38568;DHT22;24338;48.280;10.970;2022-12-18T04:25:12;-4.90;99.90
38568;DHT22;24338;48.280;10.970;2022-12-18T04:27:39;-4.80;99.90
38568;DHT22;24338;48.280;10.970;2022-12-18T04:30:06;-4.80;99.90
38568;DHT22;24338;48.280;10.970;2022-12-18T04:32:34;-4.90;99.90
38568;DHT22;24338;48.280;10.970;2022-12-18T04:35:01;-4.80;99.90
38568;DHT22;24338;48.280;10.970;2022-12-18T04:37:28;-4.80;99.90
38568;DHT22;24338;48.280;10.970;2022-12-18T04:39:54;-4.80;99.90
38568;DHT22;24338;48.280;10.970;2022-12-18T04:42:21;-4.80;99.90
38568;DHT22;24338;48.280;10.970;2022-12-18T04:44:48;-4.80;99.90
38568;DHT22;24338;48.280;10.970;2022-12-18T04:47:15;-4.80;99.90
38568;DHT22;24338;48.280;10.970;2022-12-18T04:49:42;-4.90;99.90
38568;DHT22;24338;48.280;10.970;2022-12-18T04:52:09;-4.90;99.90
38568;DHT22;24338;48.280;10.970;2022-12-18T04:54:35;-4.90;99.90
38568;DHT22;24338;48.280;10.970;2022-12-18T04:57:02;-4.90;99.90
38568;DHT22;24338;48.280;10.970;2022-12-18T04:59:29;-4.90;99.90
38568;DHT22;24338;48.280;10.970;2022-12-18T05:01:56;-4.90;99.90
38568;DHT22;24338;48.280;10.970;2022-12-18T05:04:23;-4.90;99.90
38568;DHT22;24338;48.280;10.970;2022-12-18T05:06:50;-4.80;99.90
38568;DHT22;24338;48.280;10.970;2022-12-18T05:09:17;-4.90;99.90
38568;DHT22;24338;48.280;10.970;2022-12-18T05:11:45;-4.90;99.90
38568;DHT22;24338;48.280;10.970;2022-12-18T05:14:13;-4.90;99.90
38568;DHT22;24338;48.280;10.970;2022-12-18T05:16:40;-4.90;99.90
38568;DHT22;24338;48.280;10.970;2022-12-18T05:19:07;-4.90;99.90
38568;DHT22;24338;48.280;10.970;2022-12-18T05:21:34;-5.00;99.90
38568;DHT22;24338;48.280;10.970;2022-12-18T05:24:00;-4.90;99.90
38568;DHT22;24338;48.280;10.970;2022-12-18T05:26:27;-5.00;99.90
38568;DHT22;24338;48.280;10.970;2022-12-18T05:28:57;-4.90;99.90
38568;DHT22;24338;48.280;10.970;2022-12-18T05:31:24;-4.90;99.90
38568;DHT22;24338;48.280;10.970;2022-12-18T05:33:51;-4.90;99.90
38568;DHT22;24338;48.280;10.970;2022-12-18T05:36:18;-4.90;99.90
38568;DHT22;24338;48.280;10.970;2022-12-18T05:38:45;-4.90;99.90
38568;DHT22;24338;48.280;10.970;2022-12-18T05:41:11;-4.90;99.90
38568;DHT22;24338;48.280;10.970;2022-12-18T05:43:39;-4.90;99.90
38568;DHT22;24338;48.280;10.970;2022-12-18T05:46:11;-4.90;99.90
38568;DHT22;24338;48.280;10.970;2022-12-18T05:48:38;-4.90;99.90
38568;DHT22;24338;48.280;10.970;2022-12-18T05:51:07;-4.90;99.90
38568;DHT22;24338;48.280;10.970;2022-12-18T05:53:35;-4.90;99.90
38568;DHT22;24338;48.280;10.970;2022-12-18T05:56:05;-4.80;99.90
38568;DHT22;24338;48.280;10.970;2022-12-18T05:58:32;-4.90;99.90
38568;DHT22;24338;48.280;10.970;2022-12-18T06:01:10;-4.90;99.90
38568;DHT22;24338;48.280;10.970;2022-12-18T06:03:37;-4.90;99.90
38568;DHT22;24338;48.280;10.970;2022-12-18T06:06:13;-4.90;99.90
38568;DHT22;24338;48.280;10.970;2022-12-18T06:08:41;-4.90;99.90
38568;DHT22;24338;48.280;10.970;2022-12-18T06:11:12;-4.90;99.90
38568;DHT22;24338;48.280;10.970;2022-12-18T06:13:39;-4.90;99.90
38568;DHT22;24338;48.280;10.970;2022-12-18T06:16:07;-4.90;99.90
38568;DHT22;24338;48.280;10.970;2022-12-18T06:18:34;-4.90;99.90
38568;DHT22;24338;48.280;10.970;2022-12-18T06:21:01;-4.90;99.90
38568;DHT22;24338;48.280;10.970;2022-12-18T06:23:28;-4.90;99.90
38568;DHT22;24338;48.280;10.970;2022-12-18T06:25:55;-4.90;99.90
38568;DHT22;24338;48.280;10.970;2022-12-18T06:28:22;-4.90;99.90
38568;DHT22;24338;48.280;10.970;2022-12-18T06:30:49;-4.90;99.90
38568;DHT22;24338;48.280;10.970;2022-12-18T06:33:16;-4.90;99.90
38568;DHT22;24338;48.280;10.970;2022-12-18T06:35:43;-4.90;99.90
38568;DHT22;24338;48.280;10.970;2022-12-18T06:38:10;-4.90;99.90
38568;DHT22;24338;48.280;10.970;2022-12-18T06:40:37;-4.90;99.90
38568;DHT22;24338;48.280;10.970;2022-12-18T06:43:06;-4.90;99.90
38568;DHT22;24338;48.280;10.970;2022-12-18T06:45:33;-5.00;99.90
38568;DHT22;24338;48.280;10.970;2022-12-18T06:48:00;-5.00;99.90
38568;DHT22;24338;48.280;10.970;2022-12-18T06:50:27;-4.90;99.90
38568;DHT22;24338;48.280;10.970;2022-12-18T06:52:53;-4.90;99.90
38568;DHT22;24338;48.280;10.970;2022-12-18T06:55:20;-5.00;99.90
38568;DHT22;24338;48.280;10.970;2022-12-18T06:57:47;-5.00;99.90
38568;DHT22;24338;48.280;10.970;2022-12-18T07:00:14;-4.90;99.90
38568;DHT22;24338;48.280;10.970;2022-12-18T07:02:41;-4.90;99.90
38568;DHT22;24338;48.280;10.970;2022-12-18T07:05:08;-4.90;99.90
38568;DHT22;24338;48.280;10.970;2022-12-18T07:07:36;-4.90;99.90
38568;DHT22;24338;48.280;10.970;2022-12-18T07:10:04;-4.90;99.90
38568;DHT22;24338;48.280;10.970;2022-12-18T07:12:31;-4.90;99.90
38568;DHT22;24338;48.280;10.970;2022-12-18T07:14:57;-4.90;99.90
38568;DHT22;24338;48.280;10.970;2022-12-18T07:17:24;-4.90;99.90
38568;DHT22;24338;48.280;10.970;2022-12-18T07:19:51;-4.90;99.90
38568;DHT22;24338;48.280;10.970;2022-12-18T07:22:18;-4.90;99.90
38568;DHT22;24338;48.280;10.970;2022-12-18T07:24:45;-4.80;99.90
38568;DHT22;24338;48.280;10.970;2022-12-18T07:27:12;-4.80;99.90
38568;DHT22;24338;48.280;10.970;2022-12-18T07:29:39;-4.80;99.90
38568;DHT22;24338;48.280;10.970;2022-12-18T07:32:06;-4.80;99.90
38568;DHT22;24338;48.280;10.970;2022-12-18T07:34:34;-4.80;99.90
38568;DHT22;24338;48.280;10.970;2022-12-18T07:37:02;-4.80;99.90
38568;DHT22;24338;48.280;10.970;2022-12-18T07:39:29;-4.70;99.90
38568;DHT22;24338;48.280;10.970;2022-12-18T07:41:56;-4.70;99.90
38568;DHT22;24338;48.280;10.970;2022-12-18T07:44:41;-4.60;99.90
38568;DHT22;24338;48.280;10.970;2022-12-18T07:47:08;-4.60;99.90
38568;DHT22;24338;48.280;10.970;2022-12-18T07:49:37;-4.60;99.90
38568;DHT22;24338;48.280;10.970;2022-12-18T07:52:04;-4.50;99.90
38568;DHT22;24338;48.280;10.970;2022-12-18T07:54:31;-4.60;99.90
38568;DHT22;24338;48.280;10.970;2022-12-18T07:56:58;-4.60;99.90
38568;DHT22;24338;48.280;10.970;2022-12-18T07:59:26;-4.50;99.90
38568;DHT22;24338;48.280;10.970;2022-12-18T08:01:53;-4.50;99.90
38568;DHT22;24338;48.280;10.970;2022-12-18T08:04:20;-4.40;99.90
38568;DHT22;24338;48.280;10.970;2022-12-18T08:06:47;-4.40;99.90
38568;DHT22;24338;48.280;10.970;2022-12-18T08:09:14;-4.50;99.90
38568;DHT22;24338;48.280;10.970;2022-12-18T08:11:41;-4.40;99.90
38568;DHT22;24338;48.280;10.970;2022-12-18T08:14:07;-4.40;99.90
38568;DHT22;24338;48.280;10.970;2022-12-18T08:16:34;-4.40;99.90
38568;DHT22;24338;48.280;10.970;2022-12-18T08:19:02;-4.30;99.90
38568;DHT22;24338;48.280;10.970;2022-12-18T08:21:31;-4.30;99.90
38568;DHT22;24338;48.280;10.970;2022-12-18T08:24:00;-4.20;99.90
38568;DHT22;24338;48.280;10.970;2022-12-18T08:26:29;-4.20;99.90
38568;DHT22;24338;48.280;10.970;2022-12-18T08:28:57;-4.20;99.90
38568;DHT22;24338;48.280;10.970;2022-12-18T08:31:26;-4.20;99.90
38568;DHT22;24338;48.280;10.970;2022-12-18T08:33:53;-4.10;99.90
38568;DHT22;24338;48.280;10.970;2022-12-18T08:36:21;-4.20;99.90
38568;DHT22;24338;48.280;10.970;2022-12-18T08:38:50;-4.10;99.90
38568;DHT22;24338;48.280;10.970;2022-12-18T08:41:17;-4.10;99.90
38568;DHT22;24338;48.280;10.970;2022-12-18T08:43:45;-4.10;99.90
38568;DHT22;24338;48.280;10.970;2022-12-18T08:46:39;-4.10;99.90
38568;DHT22;24338;48.280;10.970;2022-12-18T08:49:07;-4.00;99.90
38568;DHT22;24338;48.280;10.970;2022-12-18T08:51:34;-4.00;99.90
38568;DHT22;24338;48.280;10.970;2022-12-18T08:54:02;-4.00;99.90
38568;DHT22;24338;48.280;10.970;2022-12-18T08:56:32;-4.00;99.90
38568;DHT22;24338;48.280;10.970;2022-12-18T08:58:59;-4.00;99.90
38568;DHT22;24338;48.280;10.970;2022-12-18T09:01:27;-4.00;99.90
38568;DHT22;24338;48.280;10.970;2022-12-18T09:03:54;-4.00;99.90
38568;DHT22;24338;48.280;10.970;2022-12-18T09:06:22;-4.00;99.90
38568;DHT22;24338;48.280;10.970;2022-12-18T09:08:49;-3.90;99.90
38568;DHT22;24338;48.280;10.970;2022-12-18T09:11:24;-3.90;99.90
38568;DHT22;24338;48.280;10.970;2022-12-18T09:13:53;-3.90;99.90
38568;DHT22;24338;48.280;10.970;2022-12-18T09:16:21;-3.90;99.90
38568;DHT22;24338;48.280;10.970;2022-12-18T09:18:55;-3.80;99.90
38568;DHT22;24338;48.280;10.970;2022-12-18T09:23:55;-3.80;99.90
38568;DHT22;24338;48.280;10.970;2022-12-18T09:26:23;-3.70;99.90
38568;DHT22;24338;48.280;10.970;2022-12-18T09:28:50;-3.80;99.90
38568;DHT22;24338;48.280;10.970;2022-12-18T09:31:20;-3.80;99.90
38568;DHT22;24338;48.280;10.970;2022-12-18T09:33:48;-3.80;99.90
38568;DHT22;24338;48.280;10.970;2022-12-18T09:36:16;-3.70;99.90
38568;DHT22;24338;48.280;10.970;2022-12-18T09:38:44;-3.60;99.90
38568;DHT22;24338;48.280;10.970;2022-12-18T09:41:28;-3.70;99.90
38568;DHT22;24338;48.280;10.970;2022-12-18T09:44:03;-3.60;99.90
38568;DHT22;24338;48.280;10.970;2022-12-18T09:46:37;-3.50;99.90
38568;DHT22;24338;48.280;10.970;2022-12-18T09:49:13;-3.60;99.90
38568;DHT22;24338;48.280;10.970;2022-12-18T09:51:54;-3.60;99.90
38568;DHT22;24338;48.280;10.970;2022-12-18T09:54:32;-3.50;99.90
38568;DHT22;24338;48.280;10.970;2022-12-18T09:56:59;-3.60;99.90
38568;DHT22;24338;48.280;10.970;2022-12-18T09:59:38;-3.50;99.90
38568;DHT22;24338;48.280;10.970;2022-12-18T10:02:29;-3.40;99.90
38568;DHT22;24338;48.280;10.970;2022-12-18T10:05:20;-3.40;99.90
38568;DHT22;24338;48.280;10.970;2022-12-18T10:08:02;-3.30;99.90
38568;DHT22;24338;48.280;10.970;2022-12-18T10:10:40;-3.20;99.90
38568;DHT22;24338;48.280;10.970;2022-12-18T10:13:31;-3.30;99.90
38568;DHT22;24338;48.280;10.970;2022-12-18T10:18:49;-3.10;99.90
38568;DHT22;24338;48.280;10.970;2022-12-18T10:21:24;-3.10;99.90
38568;DHT22;24338;48.280;10.970;2022-12-18T10:24:18;-2.90;99.90
38568;DHT22;24338;48.280;10.970;2022-12-18T10:26:48;-3.00;99.90
38568;DHT22;24338;48.280;10.970;2022-12-18T10:29:16;-2.80;99.90
38568;DHT22;24338;48.280;10.970;2022-12-18T10:31:43;-2.80;99.90
38568;DHT22;24338;48.280;10.970;2022-12-18T10:34:11;-2.70;99.90
38568;DHT22;24338;48.280;10.970;2022-12-18T10:36:38;-2.60;99.90
38568;DHT22;24338;48.280;10.970;2022-12-18T10:39:24;-2.60;99.90
38568;DHT22;24338;48.280;10.970;2022-12-18T10:42:11;-2.70;99.90
38568;DHT22;24338;48.280;10.970;2022-12-18T10:44:39;-2.60;99.90
38568;DHT22;24338;48.280;10.970;2022-12-18T10:47:12;-2.80;99.90
38568;DHT22;24338;48.280;10.970;2022-12-18T10:49:49;-2.70;99.90
38568;DHT22;24338;48.280;10.970;2022-12-18T10:52:24;-2.70;99.90
38568;DHT22;24338;48.280;10.970;2022-12-18T10:54:58;-2.80;99.90
38568;DHT22;24338;48.280;10.970;2022-12-18T10:57:40;-2.80;99.90
38568;DHT22;24338;48.280;10.970;2022-12-18T11:00:29;-2.90;99.90
38568;DHT22;24338;48.280;10.970;2022-12-18T11:02:57;-2.90;99.90
38568;DHT22;24338;48.280;10.970;2022-12-18T11:05:29;-2.80;99.90
38568;DHT22;24338;48.280;10.970;2022-12-18T11:07:58;-2.60;99.90
38568;DHT22;24338;48.280;10.970;2022-12-18T11:10:37;-2.60;99.90
38568;DHT22;24338;48.280;10.970;2022-12-18T11:13:22;-2.60;99.90
38568;DHT22;24338;48.280;10.970;2022-12-18T11:15:49;-2.60;99.90
38568;DHT22;24338;48.280;10.970;2022-12-18T11:20:54;-2.50;99.90
38568;DHT22;24338;48.280;10.970;2022-12-18T11:23:25;-2.50;99.90
38568;DHT22;24338;48.280;10.970;2022-12-18T11:26:04;-2.40;99.90
38568;DHT22;24338;48.280;10.970;2022-12-18T11:28:51;-2.30;99.90
38568;DHT22;24338;48.280;10.970;2022-12-18T11:31:22;-2.50;99.90
38568;DHT22;24338;48.280;10.970;2022-12-18T11:36:55;-2.30;99.90
38568;DHT22;24338;48.280;10.970;2022-12-18T11:39:38;-2.30;99.90
38568;DHT22;24338;48.280;10.970;2022-12-18T11:42:34;-2.40;99.90
38568;DHT22;24338;48.280;10.970;2022-12-18T11:48:01;-2.40;99.90
38568;DHT22;24338;48.280;10.970;2022-12-18T11:50:51;-2.50;99.90
38568;DHT22;24338;48.280;10.970;2022-12-18T11:53:20;-2.50;99.90
38568;DHT22;24338;48.280;10.970;2022-12-18T11:56:19;-2.60;99.90
38568;DHT22;24338;48.280;10.970;2022-12-18T11:59:02;-2.50;99.90
38568;DHT22;24338;48.280;10.970;2022-12-18T12:01:50;-2.60;99.90
38568;DHT22;24338;48.280;10.970;2022-12-18T12:10:43;-2.60;99.90
38568;DHT22;24338;48.280;10.970;2022-12-18T12:16:27;-2.60;99.90
38568;DHT22;24338;48.280;10.970;2022-12-18T12:21:43;-2.80;99.90
38568;DHT22;24338;48.280;10.970;2022-12-18T12:24:36;-3.00;99.90
38568;DHT22;24338;48.280;10.970;2022-12-18T12:27:17;-2.90;99.90
38568;DHT22;24338;48.280;10.970;2022-12-18T12:33:18;-2.90;99.90
38568;DHT22;24338;48.280;10.970;2022-12-18T12:38:43;-2.90;99.90
38568;DHT22;24338;48.280;10.970;2022-12-18T12:41:21;-2.80;99.90
38568;DHT22;24338;48.280;10.970;2022-12-18T12:44:17;-2.90;99.90
38568;DHT22;24338;48.280;10.970;2022-12-18T12:46:46;-2.90;99.90
38568;DHT22;24338;48.280;10.970;2022-12-18T12:49:17;-3.00;99.90
38568;DHT22;24338;48.280;10.970;2022-12-18T12:51:49;-2.90;99.90
38568;DHT22;24338;48.280;10.970;2022-12-18T12:54:23;-3.00;99.90
38568;DHT22;24338;48.280;10.970;2022-12-18T12:57:00;-3.00;99.90
38568;DHT22;24338;48.280;10.970;2022-12-18T12:59:41;-3.00;99.90
38568;DHT22;24338;48.280;10.970;2022-12-18T13:02:24;-3.00;99.90
38568;DHT22;24338;48.280;10.970;2022-12-18T13:15:40;-3.20;99.90
38568;DHT22;24338;48.280;10.970;2022-12-18T13:21:21;-3.20;99.90
38568;DHT22;24338;48.280;10.970;2022-12-18T13:23:50;-3.20;99.90
38568;DHT22;24338;48.280;10.970;2022-12-18T13:28:55;-3.30;99.90
38568;DHT22;24338;48.280;10.970;2022-12-18T13:34:24;-3.40;99.90
38568;DHT22;24338;48.280;10.970;2022-12-18T13:36:55;-3.40;99.90
38568;DHT22;24338;48.280;10.970;2022-12-18T13:39:24;-3.50;99.90
38568;DHT22;24338;48.280;10.970;2022-12-18T13:44:40;-3.40;99.90
38568;DHT22;24338;48.280;10.970;2022-12-18T13:47:34;-3.40;99.90
38568;DHT22;24338;48.280;10.970;2022-12-18T13:50:33;-3.40;99.90
38568;DHT22;24338;48.280;10.970;2022-12-18T13:53:03;-3.40;99.90
38568;DHT22;24338;48.280;10.970;2022-12-18T13:55:32;-3.30;99.90
38568;DHT22;24338;48.280;10.970;2022-12-18T13:58:06;-3.30;99.90
38568;DHT22;24338;48.280;10.970;2022-12-18T14:00:33;-3.40;99.90
38568;DHT22;24338;48.280;10.970;2022-12-18T14:03:01;-3.30;99.90
38568;DHT22;24338;48.280;10.970;2022-12-18T14:05:34;-3.30;99.90
38568;DHT22;24338;48.280;10.970;2022-12-18T14:08:13;-3.30;99.90
38568;DHT22;24338;48.280;10.970;2022-12-18T14:10:43;-3.30;99.90
38568;DHT22;24338;48.280;10.970;2022-12-18T14:13:37;-3.40;99.90
38568;DHT22;24338;48.280;10.970;2022-12-18T14:16:06;-3.30;99.90
38568;DHT22;24338;48.280;10.970;2022-12-18T14:18:56;-3.40;99.90
38568;DHT22;24338;48.280;10.970;2022-12-18T14:21:33;-3.50;99.90
38568;DHT22;24338;48.280;10.970;2022-12-18T14:26:32;-3.60;99.90
38568;DHT22;24338;48.280;10.970;2022-12-18T14:29:35;-3.80;99.90
38568;DHT22;24338;48.280;10.970;2022-12-18T14:32:18;-3.80;99.90
38568;DHT22;24338;48.280;10.970;2022-12-18T14:34:53;-3.80;99.90
38568;DHT22;24338;48.280;10.970;2022-12-18T14:37:25;-3.80;99.90
38568;DHT22;24338;48.280;10.970;2022-12-18T14:39:57;-3.90;99.90
38568;DHT22;24338;48.280;10.970;2022-12-18T14:42:28;-4.00;99.90
38568;DHT22;24338;48.280;10.970;2022-12-18T14:48:22;-4.10;99.90
38568;DHT22;24338;48.280;10.970;2022-12-18T14:51:00;-4.20;99.90
38568;DHT22;24338;48.280;10.970;2022-12-18T14:53:43;-4.30;99.90
38568;DHT22;24338;48.280;10.970;2022-12-18T14:59:04;-4.20;99.90
38568;DHT22;24338;48.280;10.970;2022-12-18T15:01:34;-4.30;99.90
38568;DHT22;24338;48.280;10.970;2022-12-18T15:04:03;-4.30;99.90
38568;DHT22;24338;48.280;10.970;2022-12-18T15:06:34;-4.40;99.90
38568;DHT22;24338;48.280;10.970;2022-12-18T15:09:24;-4.30;99.90
38568;DHT22;24338;48.280;10.970;2022-12-18T15:11:56;-4.30;99.90
38568;DHT22;24338;48.280;10.970;2022-12-18T15:16:59;-4.30;99.90
38568;DHT22;24338;48.280;10.970;2022-12-18T15:19:37;-4.30;99.90
38568;DHT22;24338;48.280;10.970;2022-12-18T15:22:24;-4.30;99.90
38568;DHT22;24338;48.280;10.970;2022-12-18T15:24:51;-4.30;99.90
38568;DHT22;24338;48.280;10.970;2022-12-18T15:32:36;-4.40;99.90
38568;DHT22;24338;48.280;10.970;2022-12-18T15:35:23;-4.40;99.90
38568;DHT22;24338;48.280;10.970;2022-12-18T15:37:51;-4.50;99.90
38568;DHT22;24338;48.280;10.970;2022-12-18T15:40:23;-4.40;99.90
38568;DHT22;24338;48.280;10.970;2022-12-18T15:42:53;-4.40;99.90
38568;DHT22;24338;48.280;10.970;2022-12-18T15:45:39;-4.40;99.90
38568;DHT22;24338;48.280;10.970;2022-12-18T15:48:22;-4.50;99.90
38568;DHT22;24338;48.280;10.970;2022-12-18T15:50:50;-4.50;99.90
38568;DHT22;24338;48.280;10.970;2022-12-18T15:53:19;-4.50;99.90
38568;DHT22;24338;48.280;10.970;2022-12-18T15:55:46;-4.40;99.90
38568;DHT22;24338;48.280;10.970;2022-12-18T15:58:32;-4.40;99.90
38568;DHT22;24338;48.280;10.970;2022-12-18T16:01:00;-4.30;99.90
38568;DHT22;24338;48.280;10.970;2022-12-18T16:03:27;-4.40;99.90
38568;DHT22;24338;48.280;10.970;2022-12-18T16:05:54;-4.40;99.90
38568;DHT22;24338;48.280;10.970;2022-12-18T16:08:22;-4.40;99.90
38568;DHT22;24338;48.280;10.970;2022-12-18T16:10:49;-4.40;99.90
38568;DHT22;24338;48.280;10.970;2022-12-18T16:13:18;-4.30;99.90
38568;DHT22;24338;48.280;10.970;2022-12-18T16:15:45;-4.30;99.90
38568;DHT22;24338;48.280;10.970;2022-12-18T16:18:12;-4.30;99.90
38568;DHT22;24338;48.280;10.970;2022-12-18T16:20:39;-4.30;99.90
38568;DHT22;24338;48.280;10.970;2022-12-18T16:23:07;-4.30;99.90
38568;DHT22;24338;48.280;10.970;2022-12-18T16:25:34;-4.30;99.90
38568;DHT22;24338;48.280;10.970;2022-12-18T16:28:00;-4.30;99.90
38568;DHT22;24338;48.280;10.970;2022-12-18T16:30:29;-4.30;99.90
38568;DHT22;24338;48.280;10.970;2022-12-18T16:33:04;-4.30;99.90
38568;DHT22;24338;48.280;10.970;2022-12-18T16:35:33;-4.30;99.90
38568;DHT22;24338;48.280;10.970;2022-12-18T16:38:00;-4.30;99.90
38568;DHT22;24338;48.280;10.970;2022-12-18T16:40:27;-4.30;99.90
38568;DHT22;24338;48.280;10.970;2022-12-18T16:42:54;-4.30;99.90
38568;DHT22;24338;48.280;10.970;2022-12-18T16:45:21;-4.30;99.90
38568;DHT22;24338;48.280;10.970;2022-12-18T16:47:47;-4.30;99.90
38568;DHT22;24338;48.280;10.970;2022-12-18T16:50:14;-4.30;99.90
38568;DHT22;24338;48.280;10.970;2022-12-18T16:52:41;-4.40;99.90
38568;DHT22;24338;48.280;10.970;2022-12-18T16:55:08;-4.40;99.90
38568;DHT22;24338;48.280;10.970;2022-12-18T16:57:35;-4.50;99.90
38568;DHT22;24338;48.280;10.970;2022-12-18T17:00:03;-4.50;99.90
38568;DHT22;24338;48.280;10.970;2022-12-18T17:02:32;-4.50;99.90
38568;DHT22;24338;48.280;10.970;2022-12-18T17:04:59;-4.40;99.90
38568;DHT22;24338;48.280;10.970;2022-12-18T17:07:27;-4.40;99.90
38568;DHT22;24338;48.280;10.970;2022-12-18T17:09:54;-4.40;99.90
38568;DHT22;24338;48.280;10.970;2022-12-18T17:12:22;-4.40;99.90
38568;DHT22;24338;48.280;10.970;2022-12-18T17:14:49;-4.40;99.90
38568;DHT22;24338;48.280;10.970;2022-12-18T17:17:16;-4.40;99.90
38568;DHT22;24338;48.280;10.970;2022-12-18T17:19:47;-4.40;99.90
38568;DHT22;24338;48.280;10.970;2022-12-18T17:22:14;-4.40;99.90
38568;DHT22;24338;48.280;10.970;2022-12-18T17:24:41;-4.40;99.90